This is the latest recevied weather packets stored in our database for station/object AE2A-13. If no packets are shown the sender has not sent any weather packets the latest 10 day(s).
| Time | Temp. | Humidity | Pressure | Rain* | Wind** | Luminosity | Snow |
|---|---|---|---|---|---|---|---|
| 1777816804 | 20° C | 89% | 1018.3 hPa | 0 mm | - | - | - |
| 1777816504 | 20° C | 90% | 1018.2 hPa | 0 mm | - | - | - |
| 1777815904 | 19.44° C | 91% | 1018.2 hPa | 0 mm | - | - | - |
| 1777814104 | 18.33° C | 93% | 1018.1 hPa | 0 mm | - | - | - |
| 1777812904 | 17.78° C | 94% | 1017.9 hPa | 0 mm | - | - | - |
| 1777811104 | 17.78° C | 94% | 1017.5 hPa | 0 mm | - | - | - |
| 1777808703 | 17.78° C | 95% | 1016.7 hPa | 0 mm | - | - | - |
| 1777808403 | 17.78° C | 95% | 1016.7 hPa | 0 mm | - | - | - |
| 1777804804 | 17.22° C | 96% | 1016.4 hPa | 0 mm | - | - | - |
| 1777803604 | 17.22° C | 97% | 1016.2 hPa | 0 mm | - | - | - |
| 1777800304 | 17.22° C | 100% | 1016.3 hPa | 0 mm | - | - | - |
| 1777799704 | 17.22° C | 100% | 1016.2 hPa | 0 mm | - | - | - |
| 1777799404 | 17.78° C | 100% | 1016.1 hPa | 0 mm | - | - | - |
| 1777799104 | 17.78° C | 100% | 1016.1 hPa | 0 mm | - | - | - |
| 1777796404 | 17.78° C | 97% | 1015.8 hPa | 0 mm | - | - | - |
| 1777791904 | 17.78° C | 97% | 1015.5 hPa | 0 mm | - | - | - |
| 1777789505 | 17.78° C | 97% | 1015.4 hPa | 0.25 mm | - | - | - |
| 1777787704 | 18.33° C | 97% | 1015.9 hPa | 1.02 mm | - | - | - |
| 1777787403 | 18.33° C | 97% | 1016 hPa | 1.02 mm | - | - | - |
| 1777786803 | 18.89° C | 97% | 1015.9 hPa | 1.27 mm | - | - | - |
| 1777786204 | 18.89° C | 97% | 1016.1 hPa | 1.02 mm | - | - | - |
| 1777783204 | 20.56° C | 95% | 1015.5 hPa | 0 mm | - | - | - |
| 1777778704 | 21.67° C | 94% | 1014.2 hPa | 0 mm | - | - | - |
| 1777778104 | 21.67° C | 94% | 1014.2 hPa | 0 mm | - | - | - |
| 1777777504 | 21.67° C | 94% | 1014 hPa | 0 mm | - | - | - |
* Rain latest hour (hover to see other rain measurements)
** Current wind speed in m/s (hover to see current wind gust speed)